sensor_id;sensor_type;location;lat;lon;timestamp;pressure;altitude;pressure_sealevel;temperature;humidity
9899;BME280;4988;49.238;6.698;2023-04-28T00:01:20;98862.59;;;13.47;92.39
9899;BME280;4988;49.238;6.698;2023-04-28T00:03:45;98850.41;;;13.43;93.02
9899;BME280;4988;49.238;6.698;2023-04-28T00:06:10;98850.41;;;13.43;94.60
9899;BME280;4988;49.238;6.698;2023-04-28T00:08:36;98845.78;;;13.30;93.04
9899;BME280;4988;49.238;6.698;2023-04-28T00:11:02;98846.72;;;13.29;92.38
9899;BME280;4988;49.238;6.698;2023-04-28T00:13:28;98843.19;;;13.29;93.19
9899;BME280;4988;49.238;6.698;2023-04-28T00:15:53;98845.84;;;13.29;94.12
9899;BME280;4988;49.238;6.698;2023-04-28T00:18:19;98837.84;;;13.29;94.84
9899;BME280;4988;49.238;6.698;2023-04-28T00:20:45;98842.13;;;13.31;95.64
9899;BME280;4988;49.238;6.698;2023-04-28T00:23:10;98836.13;;;13.28;95.07
9899;BME280;4988;49.238;6.698;2023-04-28T00:25:36;98835.09;;;13.30;95.01
9899;BME280;4988;49.238;6.698;2023-04-28T00:28:01;98826.69;;;13.22;95.47
9899;BME280;4988;49.238;6.698;2023-04-28T00:30:28;98829.16;;;13.25;96.07
9899;BME280;4988;49.238;6.698;2023-04-28T00:32:54;98826.19;;;13.30;95.78
9899;BME280;4988;49.238;6.698;2023-04-28T00:35:19;98816.66;;;13.26;96.27
9899;BME280;4988;49.238;6.698;2023-04-28T00:37:45;98825.63;;;13.25;96.35
9899;BME280;4988;49.238;6.698;2023-04-28T00:40:10;98818.78;;;13.21;95.92
9899;BME280;4988;49.238;6.698;2023-04-28T00:42:36;98820.94;;;13.14;95.99
9899;BME280;4988;49.238;6.698;2023-04-28T00:45:01;98816.28;;;13.17;96.52
9899;BME280;4988;49.238;6.698;2023-04-28T00:47:33;98821.44;;;13.06;96.79
9899;BME280;4988;49.238;6.698;2023-04-28T00:50:00;98829.72;;;13.01;97.50
9899;BME280;4988;49.238;6.698;2023-04-28T00:52:26;98826.50;;;13.11;97.98
9899;BME280;4988;49.238;6.698;2023-04-28T00:54:52;98837.09;;;13.12;97.43
9899;BME280;4988;49.238;6.698;2023-04-28T00:57:18;98842.91;;;13.05;97.88
9899;BME280;4988;49.238;6.698;2023-04-28T00:59:43;98848.56;;;13.14;97.74
9899;BME280;4988;49.238;6.698;2023-04-28T01:02:09;98844.53;;;13.07;98.12
9899;BME280;4988;49.238;6.698;2023-04-28T01:04:44;98840.50;;;13.00;98.35
9899;BME280;4988;49.238;6.698;2023-04-28T01:07:10;98841.19;;;13.03;97.04
9899;BME280;4988;49.238;6.698;2023-04-28T01:09:36;98833.53;;;12.97;97.24
9899;BME280;4988;49.238;6.698;2023-04-28T01:12:01;98820.75;;;13.02;98.10
9899;BME280;4988;49.238;6.698;2023-04-28T01:14:26;98806.44;;;13.03;98.79
9899;BME280;4988;49.238;6.698;2023-04-28T01:16:52;98810.53;;;12.95;99.28
9899;BME280;4988;49.238;6.698;2023-04-28T01:19:21;98806.81;;;12.83;100.00
9899;BME280;4988;49.238;6.698;2023-04-28T01:21:48;98802.03;;;12.88;100.00
9899;BME280;4988;49.238;6.698;2023-04-28T01:24:14;98814.34;;;12.91;100.00
9899;BME280;4988;49.238;6.698;2023-04-28T01:26:39;98823.31;;;12.90;100.00
9899;BME280;4988;49.238;6.698;2023-04-28T01:29:05;98817.97;;;12.90;100.00
9899;BME280;4988;49.238;6.698;2023-04-28T01:31:30;98816.84;;;12.94;100.00
9899;BME280;4988;49.238;6.698;2023-04-28T01:33:56;98813.59;;;13.03;100.00
9899;BME280;4988;49.238;6.698;2023-04-28T01:36:21;98806.81;;;12.97;100.00
9899;BME280;4988;49.238;6.698;2023-04-28T01:38:48;98803.28;;;12.97;100.00
9899;BME280;4988;49.238;6.698;2023-04-28T01:41:14;98802.31;;;12.98;100.00
9899;BME280;4988;49.238;6.698;2023-04-28T01:43:39;98809.19;;;13.02;100.00
9899;BME280;4988;49.238;6.698;2023-04-28T01:46:04;98810.06;;;13.02;100.00
9899;BME280;4988;49.238;6.698;2023-04-28T01:48:30;98809.00;;;13.05;100.00
9899;BME280;4988;49.238;6.698;2023-04-28T01:50:55;98811.97;;;13.00;100.00
9899;BME280;4988;49.238;6.698;2023-04-28T01:53:21;98803.09;;;13.00;100.00
9899;BME280;4988;49.238;6.698;2023-04-28T01:55:46;98802.31;;;12.98;100.00
9899;BME280;4988;49.238;6.698;2023-04-28T01:58:12;98799.19;;;12.91;100.00
9899;BME280;4988;49.238;6.698;2023-04-28T02:00:37;98800.97;;;12.91;100.00
9899;BME280;4988;49.238;6.698;2023-04-28T02:03:03;98797.25;;;12.93;100.00
9899;BME280;4988;49.238;6.698;2023-04-28T02:05:28;98789.72;;;12.85;100.00
9899;BME280;4988;49.238;6.698;2023-04-28T02:07:53;98788.66;;;12.88;100.00
9899;BME280;4988;49.238;6.698;2023-04-28T02:10:18;98783.59;;;12.83;100.00
9899;BME280;4988;49.238;6.698;2023-04-28T02:12:44;98791.03;;;12.78;100.00
9899;BME280;4988;49.238;6.698;2023-04-28T02:15:09;98788.22;;;12.81;100.00
9899;BME280;4988;49.238;6.698;2023-04-28T02:17:35;98779.63;;;12.76;100.00
9899;BME280;4988;49.238;6.698;2023-04-28T02:20:00;98777.97;;;12.74;100.00
9899;BME280;4988;49.238;6.698;2023-04-28T02:22:25;98769.69;;;12.78;100.00
9899;BME280;4988;49.238;6.698;2023-04-28T02:24:51;98764.16;;;12.81;100.00
9899;BME280;4988;49.238;6.698;2023-04-28T02:27:16;98769.50;;;12.81;100.00
9899;BME280;4988;49.238;6.698;2023-04-28T02:29:42;98759.94;;;12.77;100.00
9899;BME280;4988;49.238;6.698;2023-04-28T02:32:07;98767.22;;;12.75;100.00
9899;BME280;4988;49.238;6.698;2023-04-28T02:34:33;98762.91;;;12.73;100.00
9899;BME280;4988;49.238;6.698;2023-04-28T02:36:58;98760.31;;;12.71;100.00
9899;BME280;4988;49.238;6.698;2023-04-28T02:39:24;98757.19;;;12.64;100.00
9899;BME280;4988;49.238;6.698;2023-04-28T02:41:51;98761.94;;;12.59;100.00
9899;BME280;4988;49.238;6.698;2023-04-28T02:44:17;98765.28;;;12.63;100.00
9899;BME280;4988;49.238;6.698;2023-04-28T02:46:42;98760.13;;;12.60;100.00
9899;BME280;4988;49.238;6.698;2023-04-28T02:49:07;98759.06;;;12.62;100.00
9899;BME280;4988;49.238;6.698;2023-04-28T02:51:33;98757.66;;;12.71;100.00
9899;BME280;4988;49.238;6.698;2023-04-28T02:53:58;98761.09;;;12.73;100.00
9899;BME280;4988;49.238;6.698;2023-04-28T02:56:23;98758.53;;;12.71;100.00
9899;BME280;4988;49.238;6.698;2023-04-28T02:58:49;98763.75;;;12.73;100.00
9899;BME280;4988;49.238;6.698;2023-04-28T03:01:14;98756.53;;;12.75;100.00
9899;BME280;4988;49.238;6.698;2023-04-28T03:03:40;98759.28;;;12.74;100.00
9899;BME280;4988;49.238;6.698;2023-04-28T03:06:06;98768.16;;;12.74;100.00
9899;BME280;4988;49.238;6.698;2023-04-28T03:08:31;98767.38;;;12.72;100.00
9899;BME280;4988;49.238;6.698;2023-04-28T03:10:56;98765.09;;;12.66;100.00
9899;BME280;4988;49.238;6.698;2023-04-28T03:13:22;98759.19;;;12.75;100.00
9899;BME280;4988;49.238;6.698;2023-04-28T03:15:47;98751.25;;;12.74;100.00
9899;BME280;4988;49.238;6.698;2023-04-28T03:18:13;98750.81;;;12.81;100.00
9899;BME280;4988;49.238;6.698;2023-04-28T03:20:38;98738.50;;;12.79;100.00
9899;BME280;4988;49.238;6.698;2023-04-28T03:23:03;98729.03;;;12.73;100.00
9899;BME280;4988;49.238;6.698;2023-04-28T03:25:29;98729.44;;;12.67;100.00
9899;BME280;4988;49.238;6.698;2023-04-28T03:27:54;98744.28;;;12.71;100.00
9899;BME280;4988;49.238;6.698;2023-04-28T03:30:20;98746.78;;;12.74;100.00
9899;BME280;4988;49.238;6.698;2023-04-28T03:32:45;98738.00;;;12.72;100.00
9899;BME280;4988;49.238;6.698;2023-04-28T03:35:11;98721.13;;;12.71;100.00
9899;BME280;4988;49.238;6.698;2023-04-28T03:37:36;98728.94;;;12.75;100.00
9899;BME280;4988;49.238;6.698;2023-04-28T03:40:01;98720.25;;;12.71;100.00
9899;BME280;4988;49.238;6.698;2023-04-28T03:42:27;98723.91;;;12.70;100.00
9899;BME280;4988;49.238;6.698;2023-04-28T03:44:52;98718.19;;;12.76;100.00
9899;BME280;4988;49.238;6.698;2023-04-28T03:47:17;98718.38;;;12.73;100.00
9899;BME280;4988;49.238;6.698;2023-04-28T03:49:43;98717.88;;;12.81;100.00
9899;BME280;4988;49.238;6.698;2023-04-28T03:52:08;98716.63;;;12.72;100.00
9899;BME280;4988;49.238;6.698;2023-04-28T03:54:33;98714.25;;;12.67;100.00
9899;BME280;4988;49.238;6.698;2023-04-28T03:56:59;98712.72;;;12.63;100.00
9899;BME280;4988;49.238;6.698;2023-04-28T03:59:24;98709.38;;;12.60;100.00
9899;BME280;4988;49.238;6.698;2023-04-28T04:01:51;98714.56;;;12.63;100.00
9899;BME280;4988;49.238;6.698;2023-04-28T04:04:16;98703.56;;;12.67;100.00
9899;BME280;4988;49.238;6.698;2023-04-28T04:06:41;98710.84;;;12.65;100.00
9899;BME280;4988;49.238;6.698;2023-04-28T04:09:06;98710.16;;;12.62;100.00
9899;BME280;4988;49.238;6.698;2023-04-28T04:11:32;98699.28;;;12.65;100.00
9899;BME280;4988;49.238;6.698;2023-04-28T04:13:57;98704.81;;;12.62;100.00
9899;BME280;4988;49.238;6.698;2023-04-28T04:16:22;98709.38;;;12.60;100.00
9899;BME280;4988;49.238;6.698;2023-04-28T04:18:48;98697.94;;;12.58;100.00
9899;BME280;4988;49.238;6.698;2023-04-28T04:21:13;98689.47;;;12.65;100.00
9899;BME280;4988;49.238;6.698;2023-04-28T04:23:38;98688.53;;;12.66;100.00
9899;BME280;4988;49.238;6.698;2023-04-28T04:26:04;98685.84;;;12.66;100.00
9899;BME280;4988;49.238;6.698;2023-04-28T04:28:29;98683.25;;;12.65;100.00
9899;BME280;4988;49.238;6.698;2023-04-28T04:30:55;98681.34;;;12.67;100.00
9899;BME280;4988;49.238;6.698;2023-04-28T04:33:20;98681.34;;;12.67;100.00
9899;BME280;4988;49.238;6.698;2023-04-28T04:35:45;98671.06;;;12.61;100.00
9899;BME280;4988;49.238;6.698;2023-04-28T04:38:11;98669.81;;;12.52;100.00
9899;BME280;4988;49.238;6.698;2023-04-28T04:40:37;98671.41;;;12.40;100.00
9899;BME280;4988;49.238;6.698;2023-04-28T04:43:02;98672.94;;;12.30;100.00
9899;BME280;4988;49.238;6.698;2023-04-28T04:45:28;98666.72;;;12.29;100.00
9899;BME280;4988;49.238;6.698;2023-04-28T04:47:53;98683.50;;;12.17;100.00
9899;BME280;4988;49.238;6.698;2023-04-28T04:50:18;98684.16;;;12.20;100.00
9899;BME280;4988;49.238;6.698;2023-04-28T04:52:44;98686.66;;;12.23;100.00
9899;BME280;4988;49.238;6.698;2023-04-28T04:55:09;98681.31;;;12.23;100.00
9899;BME280;4988;49.238;6.698;2023-04-28T04:57:35;98685.72;;;12.25;100.00
9899;BME280;4988;49.238;6.698;2023-04-28T05:00:01;98682.84;;;12.28;100.00
9899;BME280;4988;49.238;6.698;2023-04-28T05:02:26;98681.44;;;12.36;100.00
9899;BME280;4988;49.238;6.698;2023-04-28T05:04:51;98681.34;;;12.38;100.00
9899;BME280;4988;49.238;6.698;2023-04-28T05:07:17;98684.59;;;12.43;100.00
9899;BME280;4988;49.238;6.698;2023-04-28T05:09:42;98689.25;;;12.39;100.00
9899;BME280;4988;49.238;6.698;2023-04-28T05:12:07;98687.91;;;12.32;100.00
9899;BME280;4988;49.238;6.698;2023-04-28T05:14:33;98684.75;;;12.26;100.00
9899;BME280;4988;49.238;6.698;2023-04-28T05:16:58;98692.56;;;12.29;100.00
9899;BME280;4988;49.238;6.698;2023-04-28T05:19:24;98694.47;;;12.27;100.00
9899;BME280;4988;49.238;6.698;2023-04-28T05:21:49;98692.00;;;12.23;100.00
9899;BME280;4988;49.238;6.698;2023-04-28T05:24:17;98691.22;;;12.21;100.00
9899;BME280;4988;49.238;6.698;2023-04-28T05:26:46;98696.19;;;12.28;100.00
9899;BME280;4988;49.238;6.698;2023-04-28T05:29:11;98683.63;;;12.30;100.00
9899;BME280;4988;49.238;6.698;2023-04-28T05:31:36;98693.72;;;12.39;100.00
9899;BME280;4988;49.238;6.698;2023-04-28T05:34:02;98692.50;;;12.45;100.00
9899;BME280;4988;49.238;6.698;2023-04-28T05:36:27;98695.84;;;12.48;100.00
9899;BME280;4988;49.238;6.698;2023-04-28T05:38:52;98697.38;;;12.52;100.00
9899;BME280;4988;49.238;6.698;2023-04-28T05:41:18;98694.41;;;12.57;100.00
9899;BME280;4988;49.238;6.698;2023-04-28T05:43:43;98697.75;;;12.61;100.00
9899;BME280;4988;49.238;6.698;2023-04-28T05:46:08;98701.94;;;12.65;100.00
9899;BME280;4988;49.238;6.698;2023-04-28T05:48:34;98700.81;;;12.69;100.00
9899;BME280;4988;49.238;6.698;2023-04-28T05:50:59;98703.09;;;12.75;100.00
9899;BME280;4988;49.238;6.698;2023-04-28T05:53:24;98707.50;;;12.76;100.00
9899;BME280;4988;49.238;6.698;2023-04-28T05:55:50;98707.28;;;12.79;100.00
9899;BME280;4988;49.238;6.698;2023-04-28T05:58:16;98702.53;;;12.84;100.00
9899;BME280;4988;49.238;6.698;2023-04-28T06:00:41;98706.44;;;12.93;100.00
9899;BME280;4988;49.238;6.698;2023-04-28T06:03:07;98712.16;;;13.01;100.00
9899;BME280;4988;49.238;6.698;2023-04-28T06:05:35;98713.00;;;13.02;100.00
9899;BME280;4988;49.238;6.698;2023-04-28T06:08:00;98722.66;;;13.05;100.00
9899;BME280;4988;49.238;6.698;2023-04-28T06:10:27;98719.50;;;13.12;100.00
9899;BME280;4988;49.238;6.698;2023-04-28T06:12:53;98713.88;;;13.17;100.00
9899;BME280;4988;49.238;6.698;2023-04-28T06:15:18;98720.44;;;13.26;100.00
9899;BME280;4988;49.238;6.698;2023-04-28T06:17:43;98722.03;;;13.28;100.00
9899;BME280;4988;49.238;6.698;2023-04-28T06:20:09;98717.38;;;13.32;100.00
9899;BME280;4988;49.238;6.698;2023-04-28T06:22:37;98721.53;;;13.36;100.00
9899;BME280;4988;49.238;6.698;2023-04-28T06:25:02;98725.78;;;13.40;100.00
9899;BME280;4988;49.238;6.698;2023-04-28T06:27:28;98726.34;;;13.45;100.00
9899;BME280;4988;49.238;6.698;2023-04-28T06:29:56;98725.19;;;13.49;100.00
9899;BME280;4988;49.238;6.698;2023-04-28T06:32:22;98727.66;;;13.53;100.00
9899;BME280;4988;49.238;6.698;2023-04-28T06:34:47;98731.75;;;13.58;100.00
9899;BME280;4988;49.238;6.698;2023-04-28T06:37:12;98724.59;;;13.59;100.00
9899;BME280;4988;49.238;6.698;2023-04-28T06:39:37;98727.06;;;13.62;100.00
9899;BME280;4988;49.238;6.698;2023-04-28T06:42:03;98730.50;;;13.64;100.00
9899;BME280;4988;49.238;6.698;2023-04-28T06:44:28;98724.38;;;13.62;100.00
9899;BME280;4988;49.238;6.698;2023-04-28T06:46:53;98733.72;;;13.69;100.00
9899;BME280;4988;49.238;6.698;2023-04-28T06:49:19;98738.84;;;13.72;100.00
9899;BME280;4988;49.238;6.698;2023-04-28T06:51:44;98740.78;;;13.70;100.00
9899;BME280;4988;49.238;6.698;2023-04-28T06:54:09;98745.91;;;13.73;100.00
9899;BME280;4988;49.238;6.698;2023-04-28T06:56:35;98737.81;;;13.75;100.00
9899;BME280;4988;49.238;6.698;2023-04-28T06:59:00;98741.34;;;13.75;100.00
9899;BME280;4988;49.238;6.698;2023-04-28T07:01:27;98743.72;;;13.80;100.00
9899;BME280;4988;49.238;6.698;2023-04-28T07:03:52;98750.88;;;13.79;100.00
9899;BME280;4988;49.238;6.698;2023-04-28T07:06:18;98750.88;;;13.79;100.00
9899;BME280;4988;49.238;6.698;2023-04-28T07:08:44;98749.63;;;13.85;100.00
9899;BME280;4988;49.238;6.698;2023-04-28T07:11:09;98749.00;;;13.94;100.00
9899;BME280;4988;49.238;6.698;2023-04-28T07:13:35;98755.75;;;14.00;100.00
9899;BME280;4988;49.238;6.698;2023-04-28T07:16:00;98754.03;;;13.99;100.00
9899;BME280;4988;49.238;6.698;2023-04-28T07:18:26;98752.25;;;13.99;100.00
9899;BME280;4988;49.238;6.698;2023-04-28T07:20:51;98754.03;;;13.99;100.00
9899;BME280;4988;49.238;6.698;2023-04-28T07:23:17;98760.81;;;14.05;100.00
9899;BME280;4988;49.238;6.698;2023-04-28T07:25:42;98768.97;;;14.03;100.00
9899;BME280;4988;49.238;6.698;2023-04-28T07:28:08;98774.97;;;14.07;100.00
9899;BME280;4988;49.238;6.698;2023-04-28T07:30:34;98768.97;;;14.03;100.00
9899;BME280;4988;49.238;6.698;2023-04-28T07:32:59;98766.84;;;14.08;100.00
9899;BME280;4988;49.238;6.698;2023-04-28T07:35:25;98768.22;;;14.14;100.00
9899;BME280;4988;49.238;6.698;2023-04-28T07:37:51;98766.19;;;14.18;100.00
9899;BME280;4988;49.238;6.698;2023-04-28T07:40:17;98763.44;;;14.19;100.00
9899;BME280;4988;49.238;6.698;2023-04-28T07:42:43;98771.25;;;14.22;100.00
9899;BME280;4988;49.238;6.698;2023-04-28T07:45:09;98770.28;;;14.23;100.00
9899;BME280;4988;49.238;6.698;2023-04-28T07:47:35;98768.91;;;14.30;100.00
9899;BME280;4988;49.238;6.698;2023-04-28T07:50:01;98780.94;;;14.38;100.00
9899;BME280;4988;49.238;6.698;2023-04-28T07:52:34;98772.44;;;14.31;100.00
9899;BME280;4988;49.238;6.698;2023-04-28T07:55:00;98772.25;;;14.34;100.00
9899;BME280;4988;49.238;6.698;2023-04-28T07:57:26;98775.66;;;14.36;100.00
9899;BME280;4988;49.238;6.698;2023-04-28T07:59:53;98778.34;;;14.36;100.00
9899;BME280;4988;49.238;6.698;2023-04-28T08:02:18;98783.69;;;14.36;100.00
9899;BME280;4988;49.238;6.698;2023-04-28T08:04:44;98776.44;;;14.38;100.00
9899;BME280;4988;49.238;6.698;2023-04-28T08:07:10;98775.47;;;14.52;100.00
9899;BME280;4988;49.238;6.698;2023-04-28T08:09:35;98777.44;;;14.50;100.00
9899;BME280;4988;49.238;6.698;2023-04-28T08:12:01;98775.41;;;14.54;100.00
9899;BME280;4988;49.238;6.698;2023-04-28T08:14:26;98777.00;;;14.56;100.00
9899;BME280;4988;49.238;6.698;2023-04-28T08:16:52;98781.81;;;14.64;100.00
9899;BME280;4988;49.238;6.698;2023-04-28T08:19:17;98777.91;;;14.70;100.00
9899;BME280;4988;49.238;6.698;2023-04-28T08:21:43;98790.31;;;14.71;100.00
9899;BME280;4988;49.238;6.698;2023-04-28T08:24:08;98781.31;;;14.72;100.00
9899;BME280;4988;49.238;6.698;2023-04-28T08:26:38;98784.13;;;14.70;100.00
9899;BME280;4988;49.238;6.698;2023-04-28T08:29:03;98796.75;;;14.68;100.00
9899;BME280;4988;49.238;6.698;2023-04-28T08:31:29;98792.38;;;14.67;100.00
9899;BME280;4988;49.238;6.698;2023-04-28T08:33:55;98791.38;;;14.68;100.00
9899;BME280;4988;49.238;6.698;2023-04-28T08:36:20;98795.06;;;14.67;100.00
9899;BME280;4988;49.238;6.698;2023-04-28T08:38:46;98788.41;;;14.73;100.00
9899;BME280;4988;49.238;6.698;2023-04-28T08:41:15;98794.22;;;14.79;100.00
9899;BME280;4988;49.238;6.698;2023-04-28T08:43:40;98803.75;;;14.84;100.00
9899;BME280;4988;49.238;6.698;2023-04-28T08:46:08;98798.91;;;14.89;100.00
9899;BME280;4988;49.238;6.698;2023-04-28T08:48:43;98800.84;;;14.87;100.00
9899;BME280;4988;49.238;6.698;2023-04-28T08:51:16;98795.28;;;14.90;100.00
9899;BME280;4988;49.238;6.698;2023-04-28T08:53:49;98796.03;;;14.92;100.00
9899;BME280;4988;49.238;6.698;2023-04-28T08:56:16;98798.47;;;14.95;100.00
9899;BME280;4988;49.238;6.698;2023-04-28T08:58:42;98799.34;;;14.95;100.00
9899;BME280;4988;49.238;6.698;2023-04-28T09:01:07;98803.72;;;14.96;100.00
9899;BME280;4988;49.238;6.698;2023-04-28T09:03:33;98801.94;;;14.97;100.00
9899;BME280;4988;49.238;6.698;2023-04-28T09:06:00;98799.91;;;15.01;100.00
9899;BME280;4988;49.238;6.698;2023-04-28T09:08:26;98806.84;;;15.03;100.00
9899;BME280;4988;49.238;6.698;2023-04-28T09:11:08;98805.13;;;15.02;100.00
9899;BME280;4988;49.238;6.698;2023-04-28T09:13:34;98810.50;;;15.02;100.00
9899;BME280;4988;49.238;6.698;2023-04-28T09:16:01;98805.91;;;15.04;100.00
9899;BME280;4988;49.238;6.698;2023-04-28T09:18:27;98797.50;;;15.09;100.00
9899;BME280;4988;49.238;6.698;2023-04-28T09:21:01;98807.91;;;15.14;100.00
9899;BME280;4988;49.238;6.698;2023-04-28T09:23:27;98803.50;;;15.12;100.00
9899;BME280;4988;49.238;6.698;2023-04-28T09:26:02;98801.41;;;15.18;100.00
9899;BME280;4988;49.238;6.698;2023-04-28T09:28:29;98805.75;;;15.19;100.00
9899;BME280;4988;49.238;6.698;2023-04-28T09:30:55;98809.94;;;15.36;100.00
9899;BME280;4988;49.238;6.698;2023-04-28T09:33:22;98808.13;;;15.36;100.00
9899;BME280;4988;49.238;6.698;2023-04-28T09:35:48;98805.22;;;15.39;100.00
9899;BME280;4988;49.238;6.698;2023-04-28T09:38:14;98808.66;;;15.41;100.00
9899;BME280;4988;49.238;6.698;2023-04-28T09:40:57;98810.66;;;15.51;100.00
9899;BME280;4988;49.238;6.698;2023-04-28T09:43:30;98811.72;;;15.61;100.00
9899;BME280;4988;49.238;6.698;2023-04-28T09:45:59;98812.75;;;15.71;100.00
9899;BME280;4988;49.238;6.698;2023-04-28T09:48:29;98806.22;;;15.75;100.00
9899;BME280;4988;49.238;6.698;2023-04-28T09:50:55;98803.97;;;15.82;100.00
9899;BME280;4988;49.238;6.698;2023-04-28T09:53:24;98803.31;;;15.91;100.00
9899;BME280;4988;49.238;6.698;2023-04-28T09:55:51;98800.50;;;15.93;100.00
9899;BME280;4988;49.238;6.698;2023-04-28T09:58:19;98795.63;;;15.98;100.00
9899;BME280;4988;49.238;6.698;2023-04-28T10:00:52;98788.88;;;15.92;100.00
9899;BME280;4988;49.238;6.698;2023-04-28T10:03:20;98793.13;;;16.08;100.00
9899;BME280;4988;49.238;6.698;2023-04-28T10:05:46;98797.19;;;16.14;100.00
9899;BME280;4988;49.238;6.698;2023-04-28T10:08:12;98796.59;;;16.21;100.00
9899;BME280;4988;49.238;6.698;2023-04-28T10:10:37;98787.16;;;16.16;100.00
9899;BME280;4988;49.238;6.698;2023-04-28T10:13:03;98786.66;;;16.11;100.00
9899;BME280;4988;49.238;6.698;2023-04-28T10:15:29;98785.81;;;16.10;100.00
9899;BME280;4988;49.238;6.698;2023-04-28T10:17:56;98782.44;;;15.95;100.00
9899;BME280;4988;49.238;6.698;2023-04-28T10:20:23;98768.28;;;15.93;100.00
9899;BME280;4988;49.238;6.698;2023-04-28T10:25:48;98769.38;;;15.90;100.00
9899;BME280;4988;49.238;6.698;2023-04-28T10:28:17;98773.41;;;15.96;100.00
9899;BME280;4988;49.238;6.698;2023-04-28T10:31:09;98770.44;;;15.88;100.00
9899;BME280;4988;49.238;6.698;2023-04-28T10:33:36;98780.81;;;15.92;100.00
9899;BME280;4988;49.238;6.698;2023-04-28T10:36:01;98774.09;;;15.87;100.00
9899;BME280;4988;49.238;6.698;2023-04-28T10:38:28;98781.19;;;15.88;100.00
9899;BME280;4988;49.238;6.698;2023-04-28T10:40:53;98773.84;;;15.90;100.00
9899;BME280;4988;49.238;6.698;2023-04-28T10:56:15;98792.13;;;15.85;100.00
9899;BME280;4988;49.238;6.698;2023-04-28T11:06:22;98781.41;;;16.09;100.00
9899;BME280;4988;49.238;6.698;2023-04-28T11:08:51;98789.22;;;16.12;100.00
9899;BME280;4988;49.238;6.698;2023-04-28T11:11:21;98789.69;;;16.30;100.00
9899;BME280;4988;49.238;6.698;2023-04-28T11:13:47;98791.81;;;16.49;100.00
9899;BME280;4988;49.238;6.698;2023-04-28T11:16:15;98778.81;;;16.67;100.00
9899;BME280;4988;49.238;6.698;2023-04-28T11:18:51;98779.56;;;16.81;100.00
9899;BME280;4988;49.238;6.698;2023-04-28T11:21:21;98775.16;;;16.91;100.00
9899;BME280;4988;49.238;6.698;2023-04-28T11:23:48;98769.59;;;16.94;100.00
9899;BME280;4988;49.238;6.698;2023-04-28T11:26:13;98762.03;;;16.99;100.00
9899;BME280;4988;49.238;6.698;2023-04-28T11:28:46;98772.06;;;17.09;100.00
9899;BME280;4988;49.238;6.698;2023-04-28T11:31:13;98767.66;;;17.19;100.00
9899;BME280;4988;49.238;6.698;2023-04-28T11:33:44;98761.78;;;17.25;100.00
9899;BME280;4988;49.238;6.698;2023-04-28T11:38:48;98766.91;;;17.06;100.00
9899;BME280;4988;49.238;6.698;2023-04-28T11:41:14;98760.56;;;17.07;100.00
9899;BME280;4988;49.238;6.698;2023-04-28T11:43:39;98756.63;;;17.11;100.00
9899;BME280;4988;49.238;6.698;2023-04-28T11:46:06;98756.88;;;17.30;100.00
9899;BME280;4988;49.238;6.698;2023-04-28T11:48:32;98747.94;;;17.41;100.00
9899;BME280;4988;49.238;6.698;2023-04-28T11:50:57;98746.34;;;17.50;100.00
9899;BME280;4988;49.238;6.698;2023-04-28T11:53:40;98747.09;;;17.52;100.00
9899;BME280;4988;49.238;6.698;2023-04-28T11:56:06;98744.25;;;17.53;100.00
9899;BME280;4988;49.238;6.698;2023-04-28T11:58:34;98749.81;;;17.41;100.00
9899;BME280;4988;49.238;6.698;2023-04-28T12:01:10;98751.03;;;17.14;100.00
9899;BME280;4988;49.238;6.698;2023-04-28T12:03:46;98751.75;;;17.16;100.00
9899;BME280;4988;49.238;6.698;2023-04-28T12:06:16;98741.38;;;17.23;100.00
9899;BME280;4988;49.238;6.698;2023-04-28T12:08:43;98739.78;;;17.09;100.00
9899;BME280;4988;49.238;6.698;2023-04-28T12:11:10;98728.66;;;17.25;100.00
9899;BME280;4988;49.238;6.698;2023-04-28T12:13:36;98731.19;;;17.49;100.00
9899;BME280;4988;49.238;6.698;2023-04-28T12:16:03;98728.00;;;17.44;100.00
9899;BME280;4988;49.238;6.698;2023-04-28T12:18:34;98734.63;;;17.40;100.00
9899;BME280;4988;49.238;6.698;2023-04-28T12:21:01;98731.81;;;17.41;100.00
9899;BME280;4988;49.238;6.698;2023-04-28T12:23:33;98721.19;;;17.40;100.00
9899;BME280;4988;49.238;6.698;2023-04-28T12:25:59;98729.13;;;17.41;100.00
9899;BME280;4988;49.238;6.698;2023-04-28T12:28:38;98730.34;;;17.48;100.00
9899;BME280;4988;49.238;6.698;2023-04-28T12:31:05;98727.75;;;17.58;100.00
9899;BME280;4988;49.238;6.698;2023-04-28T12:33:31;98725.66;;;17.62;100.00
9899;BME280;4988;49.238;6.698;2023-04-28T12:36:01;98724.38;;;17.77;100.00
9899;BME280;4988;49.238;6.698;2023-04-28T12:38:27;98721.59;;;17.79;100.00
9899;BME280;4988;49.238;6.698;2023-04-28T12:40:53;98723.03;;;17.83;100.00
9899;BME280;4988;49.238;6.698;2023-04-28T12:43:19;98727.53;;;17.94;100.00
9899;BME280;4988;49.238;6.698;2023-04-28T12:45:47;98729.34;;;17.93;100.00
9899;BME280;4988;49.238;6.698;2023-04-28T12:48:13;98729.88;;;17.98;100.00
9899;BME280;4988;49.238;6.698;2023-04-28T12:50:38;98723.97;;;18.05;99.89
9899;BME280;4988;49.238;6.698;2023-04-28T12:53:03;98712.69;;;18.11;100.00
9899;BME280;4988;49.238;6.698;2023-04-28T12:55:29;98720.75;;;18.11;100.00
9899;BME280;4988;49.238;6.698;2023-04-28T12:57:54;98720.50;;;18.14;99.15
9899;BME280;4988;49.238;6.698;2023-04-28T13:00:20;98717.34;;;18.30;100.00
9899;BME280;4988;49.238;6.698;2023-04-28T13:02:48;98708.34;;;18.41;98.70
9899;BME280;4988;49.238;6.698;2023-04-28T13:05:13;98708.66;;;18.26;97.51
9899;BME280;4988;49.238;6.698;2023-04-28T13:07:39;98708.50;;;18.39;97.64
9899;BME280;4988;49.238;6.698;2023-04-28T13:10:05;98710.53;;;18.47;94.39
9899;BME280;4988;49.238;6.698;2023-04-28T13:12:30;98700.31;;;18.51;95.37
9899;BME280;4988;49.238;6.698;2023-04-28T13:14:57;98711.50;;;18.46;95.54
9899;BME280;4988;49.238;6.698;2023-04-28T13:17:22;98703.16;;;18.49;97.69
9899;BME280;4988;49.238;6.698;2023-04-28T13:19:48;98701.91;;;18.53;96.87
9899;BME280;4988;49.238;6.698;2023-04-28T13:22:13;98698.03;;;18.46;96.01
9899;BME280;4988;49.238;6.698;2023-04-28T13:24:39;98693.63;;;18.45;94.90
9899;BME280;4988;49.238;6.698;2023-04-28T13:27:05;98697.50;;;18.31;95.17
9899;BME280;4988;49.238;6.698;2023-04-28T13:29:34;98699.41;;;18.19;95.52
9899;BME280;4988;49.238;6.698;2023-04-28T13:32:00;98695.47;;;18.23;97.84
9899;BME280;4988;49.238;6.698;2023-04-28T13:34:26;98699.84;;;18.24;97.88